Airfield :
LOGIN :

Register | Disclaimer

   EN    FR    IT 

 










Legend :    VFR   Marginal VFR   IFR   Intensive IFR   Very Intensive IFR
Visi :
Ceiling :
>= 8 km
>= 3000ft
5 to 8 km
1000 to 3000 ft
1500m to 5 km
500 to 1000 ft
800 to 1500m
200 to 500 ft
< 800m
< 200 ft
Symbols :   Thunderstorms  Fog  Heavy snow  Heavy precipitations  Wind > 20 kt
SIGMETs :     Misc.  Thunderstorms  Icing  Turbulence  Mountain Waves  Volcanic Ashes






- Airport Elevation : 909 ft
- IATA code : KSF


EDVK - Kassel Calden

CURRENT METAR :
  • 231950Z 11003KT 070V140 4000 BR NSC 11/10 Q1012

EXPIRED METARs :
  • 231920Z 10004KT 5000 BR BKN011 11/11 Q1013
  • 231850Z 09006KT 6000 OVC011 12/11 Q1013
  • 231820Z 08006KT 6000 OVC011 13/11 Q1014
  • 231750Z 12007KT 7000 OVC010 13/11 Q1014
  • 231720Z 10008KT 9000 OVC010 13/12 Q1014

TAF TAF EDVK
Valid from the 23 at 18:00 until the 24 at 03:00 UTC


231700Z 2318/2403 12005KT 9000 OVC010
BECMG 2320/2322 3500 BR
PROB30
TEMPO 2320/2403 OVC005



MET'MAP, your aeronautical weather chart ! - Copyright ORBIFLY December 2007 - Disclaimer

ORBIFLY MET'MAP TEAM :

Programming & Development : Alexandra Zaïnal
Concept & Development : Baudouin d'Aumeries
Co-Development & Prog : Marc-Olivier Méhu
Technical & hardware support : Manuel Goepfert

Contact : metmap@orbifly.com




SOURCES & CREDITS :

   NOAA